aviador You're here:

ROIG Decoded Metar

ISHIGAKI in JAPAN
Report Time2017-11-20 22:00:00
UTC Time2017-11-20 22:44:18
Flight Rules mvfr MVFR
Wind060° at 20 kt
W.Decomp.*RWY 04: 18.3 kt HW 8.1 kt RCW
W.Rank060° ranks 6
Current wind is above 060° avg. (11.9)
Visibility9999 m
Phenomena:Vicinity showers
Clouds:Few 007 Hf
Broken 015 Hf
Expected CloudBase > 400 ft AGL from Temp-Dew spread
Ceiling1,500 ft
Temp21°C (ISA +6)
Dew Point20°C (94% RH)
AAT17.5°C
QNH1017 hPa
Density Alt902 ft
Elevation23 ft
Report Wrong Elevation
Raw Report
METAR ROIG 202200Z 06020KT 9999 VCSH FEW007 BKN015 21/20 Q1017=

Extra information for ROIG:More info

Metar Taf Metar & Taf Last 4 Metars F.Rules Stats Wind Profile Meteogram Temp Stats Airport Information Weather charts Add Link Nearby VenuesMetar ALERT Operation Metar Decoded Social comments